sensor_id;sensor_type;location;lat;lon;timestamp;P1;durP1;ratioP1;P2;durP2;ratioP2
4547;SDS011;2286;51.570;7.090;2023-12-29T00:00:17;5.17;;;1.40;;
4547;SDS011;2286;51.570;7.090;2023-12-29T00:02:44;5.93;;;1.43;;
4547;SDS011;2286;51.570;7.090;2023-12-29T00:05:11;5.60;;;1.60;;
4547;SDS011;2286;51.570;7.090;2023-12-29T00:07:38;5.63;;;1.40;;
4547;SDS011;2286;51.570;7.090;2023-12-29T00:10:05;3.77;;;1.00;;
4547;SDS011;2286;51.570;7.090;2023-12-29T00:12:32;6.03;;;1.50;;
4547;SDS011;2286;51.570;7.090;2023-12-29T00:14:59;4.50;;;1.50;;
4547;SDS011;2286;51.570;7.090;2023-12-29T00:17:28;5.73;;;1.43;;
4547;SDS011;2286;51.570;7.090;2023-12-29T00:19:55;3.40;;;1.13;;
4547;SDS011;2286;51.570;7.090;2023-12-29T00:22:22;4.70;;;1.37;;
4547;SDS011;2286;51.570;7.090;2023-12-29T00:24:50;5.17;;;1.50;;
4547;SDS011;2286;51.570;7.090;2023-12-29T00:27:17;3.40;;;1.10;;
4547;SDS011;2286;51.570;7.090;2023-12-29T00:29:44;8.00;;;1.90;;
4547;SDS011;2286;51.570;7.090;2023-12-29T00:32:11;3.33;;;1.40;;
4547;SDS011;2286;51.570;7.090;2023-12-29T00:34:40;5.00;;;1.43;;
4547;SDS011;2286;51.570;7.090;2023-12-29T00:37:07;6.70;;;1.50;;
4547;SDS011;2286;51.570;7.090;2023-12-29T00:39:34;8.23;;;2.40;;
4547;SDS011;2286;51.570;7.090;2023-12-29T00:42:03;4.67;;;1.23;;
4547;SDS011;2286;51.570;7.090;2023-12-29T00:44:31;4.90;;;1.30;;
4547;SDS011;2286;51.570;7.090;2023-12-29T00:46:58;2.73;;;1.30;;
4547;SDS011;2286;51.570;7.090;2023-12-29T00:49:25;2.60;;;1.27;;
4547;SDS011;2286;51.570;7.090;2023-12-29T00:51:54;2.90;;;1.00;;
4547;SDS011;2286;51.570;7.090;2023-12-29T00:54:21;4.63;;;2.23;;
4547;SDS011;2286;51.570;7.090;2023-12-29T00:56:48;4.43;;;1.40;;
4547;SDS011;2286;51.570;7.090;2023-12-29T00:59:15;7.30;;;1.67;;
4547;SDS011;2286;51.570;7.090;2023-12-29T01:01:44;3.73;;;1.50;;
4547;SDS011;2286;51.570;7.090;2023-12-29T01:04:11;9.90;;;1.20;;
4547;SDS011;2286;51.570;7.090;2023-12-29T01:06:38;2.90;;;1.27;;
4547;SDS011;2286;51.570;7.090;2023-12-29T01:09:07;7.10;;;1.40;;
4547;SDS011;2286;51.570;7.090;2023-12-29T01:11:36;4.50;;;1.60;;
4547;SDS011;2286;51.570;7.090;2023-12-29T01:14:03;7.20;;;2.10;;
4547;SDS011;2286;51.570;7.090;2023-12-29T01:16:31;5.97;;;1.40;;
4547;SDS011;2286;51.570;7.090;2023-12-29T01:18:58;3.97;;;1.23;;
4547;SDS011;2286;51.570;7.090;2023-12-29T01:21:25;6.10;;;1.10;;
4547;SDS011;2286;51.570;7.090;2023-12-29T01:23:52;8.30;;;2.20;;
4547;SDS011;2286;51.570;7.090;2023-12-29T01:26:20;7.50;;;2.10;;
4547;SDS011;2286;51.570;7.090;2023-12-29T01:28:47;5.30;;;1.40;;
4547;SDS011;2286;51.570;7.090;2023-12-29T01:31:14;4.37;;;1.17;;
4547;SDS011;2286;51.570;7.090;2023-12-29T01:33:41;5.47;;;1.80;;
4547;SDS011;2286;51.570;7.090;2023-12-29T01:36:08;6.93;;;1.60;;
4547;SDS011;2286;51.570;7.090;2023-12-29T01:38:43;2.90;;;1.20;;
4547;SDS011;2286;51.570;7.090;2023-12-29T01:41:10;2.40;;;1.30;;
4547;SDS011;2286;51.570;7.090;2023-12-29T01:46:33;4.70;;;1.70;;
4547;SDS011;2286;51.570;7.090;2023-12-29T01:49:01;4.43;;;1.60;;
4547;SDS011;2286;51.570;7.090;2023-12-29T01:51:28;3.13;;;1.50;;
4547;SDS011;2286;51.570;7.090;2023-12-29T01:53:56;6.03;;;1.30;;
4547;SDS011;2286;51.570;7.090;2023-12-29T01:56:25;3.10;;;1.10;;
4547;SDS011;2286;51.570;7.090;2023-12-29T01:58:52;2.27;;;1.20;;
4547;SDS011;2286;51.570;7.090;2023-12-29T02:01:21;5.37;;;1.57;;
4547;SDS011;2286;51.570;7.090;2023-12-29T02:03:50;7.10;;;1.70;;
4547;SDS011;2286;51.570;7.090;2023-12-29T02:06:18;3.37;;;1.30;;
4547;SDS011;2286;51.570;7.090;2023-12-29T02:08:47;8.27;;;1.53;;
4547;SDS011;2286;51.570;7.090;2023-12-29T02:11:15;4.30;;;1.40;;
4547;SDS011;2286;51.570;7.090;2023-12-29T02:13:43;2.33;;;0.77;;
4547;SDS011;2286;51.570;7.090;2023-12-29T02:16:11;0.40;;;0.30;;
4547;SDS011;2286;51.570;7.090;2023-12-29T02:18:57;0.40;;;0.30;;
4547;SDS011;2286;51.570;7.090;2023-12-29T02:21:26;0.40;;;0.30;;
4547;SDS011;2286;51.570;7.090;2023-12-29T02:23:53;0.40;;;0.30;;
4547;SDS011;2286;51.570;7.090;2023-12-29T02:26:22;0.40;;;0.30;;
4547;SDS011;2286;51.570;7.090;2023-12-29T02:28:56;0.40;;;0.30;;
4547;SDS011;2286;51.570;7.090;2023-12-29T02:31:28;0.40;;;0.30;;
4547;SDS011;2286;51.570;7.090;2023-12-29T02:33:56;0.40;;;0.30;;
4547;SDS011;2286;51.570;7.090;2023-12-29T02:36:25;0.40;;;0.30;;
4547;SDS011;2286;51.570;7.090;2023-12-29T02:38:52;0.40;;;0.30;;
4547;SDS011;2286;51.570;7.090;2023-12-29T02:41:21;0.40;;;0.30;;
4547;SDS011;2286;51.570;7.090;2023-12-29T02:43:50;0.40;;;0.30;;
4547;SDS011;2286;51.570;7.090;2023-12-29T02:46:17;0.40;;;0.30;;
4547;SDS011;2286;51.570;7.090;2023-12-29T02:48:44;0.40;;;0.30;;
4547;SDS011;2286;51.570;7.090;2023-12-29T02:51:12;0.40;;;0.30;;
4547;SDS011;2286;51.570;7.090;2023-12-29T02:53:39;0.40;;;0.30;;
4547;SDS011;2286;51.570;7.090;2023-12-29T02:56:06;0.40;;;0.30;;
4547;SDS011;2286;51.570;7.090;2023-12-29T02:58:35;0.40;;;0.30;;
4547;SDS011;2286;51.570;7.090;2023-12-29T03:01:02;0.50;;;0.50;;
4547;SDS011;2286;51.570;7.090;2023-12-29T03:03:29;0.40;;;0.30;;
4547;SDS011;2286;51.570;7.090;2023-12-29T03:05:56;0.40;;;0.30;;
4547;SDS011;2286;51.570;7.090;2023-12-29T03:08:23;0.33;;;0.30;;
4547;SDS011;2286;51.570;7.090;2023-12-29T03:10:50;0.30;;;0.30;;
4547;SDS011;2286;51.570;7.090;2023-12-29T03:13:17;0.40;;;0.30;;
4547;SDS011;2286;51.570;7.090;2023-12-29T03:15:45;0.40;;;0.30;;
4547;SDS011;2286;51.570;7.090;2023-12-29T03:18:12;0.30;;;0.30;;
4547;SDS011;2286;51.570;7.090;2023-12-29T03:20:39;0.30;;;0.30;;
4547;SDS011;2286;51.570;7.090;2023-12-29T03:23:06;0.40;;;0.30;;
4547;SDS011;2286;51.570;7.090;2023-12-29T03:25:33;0.40;;;0.30;;
4547;SDS011;2286;51.570;7.090;2023-12-29T03:28:00;0.30;;;0.30;;
4547;SDS011;2286;51.570;7.090;2023-12-29T03:30:27;0.40;;;0.30;;
4547;SDS011;2286;51.570;7.090;2023-12-29T03:32:56;0.30;;;0.30;;
4547;SDS011;2286;51.570;7.090;2023-12-29T03:35:22;0.30;;;0.30;;
4547;SDS011;2286;51.570;7.090;2023-12-29T03:37:49;0.30;;;0.30;;
4547;SDS011;2286;51.570;7.090;2023-12-29T03:40:16;0.30;;;0.30;;
4547;SDS011;2286;51.570;7.090;2023-12-29T03:42:43;0.30;;;0.30;;
4547;SDS011;2286;51.570;7.090;2023-12-29T03:45:10;0.30;;;0.30;;
4547;SDS011;2286;51.570;7.090;2023-12-29T03:47:37;0.30;;;0.30;;
4547;SDS011;2286;51.570;7.090;2023-12-29T03:50:05;0.30;;;0.30;;
4547;SDS011;2286;51.570;7.090;2023-12-29T03:52:33;0.30;;;0.30;;
4547;SDS011;2286;51.570;7.090;2023-12-29T03:55:00;0.30;;;0.30;;
4547;SDS011;2286;51.570;7.090;2023-12-29T03:57:27;0.30;;;0.30;;
4547;SDS011;2286;51.570;7.090;2023-12-29T03:59:54;0.30;;;0.30;;
4547;SDS011;2286;51.570;7.090;2023-12-29T04:02:20;0.30;;;0.30;;
4547;SDS011;2286;51.570;7.090;2023-12-29T04:04:47;0.30;;;0.30;;
4547;SDS011;2286;51.570;7.090;2023-12-29T04:07:16;0.30;;;0.30;;
4547;SDS011;2286;51.570;7.090;2023-12-29T04:09:43;0.60;;;0.40;;
4547;SDS011;2286;51.570;7.090;2023-12-29T04:12:09;0.30;;;0.30;;
4547;SDS011;2286;51.570;7.090;2023-12-29T04:14:36;3.63;;;1.93;;
4547;SDS011;2286;51.570;7.090;2023-12-29T04:17:03;6.30;;;2.53;;
4547;SDS011;2286;51.570;7.090;2023-12-29T04:19:38;8.13;;;2.40;;
4547;SDS011;2286;51.570;7.090;2023-12-29T04:22:05;10.97;;;2.13;;
4547;SDS011;2286;51.570;7.090;2023-12-29T04:24:34;5.37;;;2.30;;
4547;SDS011;2286;51.570;7.090;2023-12-29T04:27:03;5.77;;;2.20;;
4547;SDS011;2286;51.570;7.090;2023-12-29T04:29:30;6.70;;;2.93;;
4547;SDS011;2286;51.570;7.090;2023-12-29T04:31:57;7.37;;;1.83;;
4547;SDS011;2286;51.570;7.090;2023-12-29T04:34:24;5.20;;;1.90;;
4547;SDS011;2286;51.570;7.090;2023-12-29T04:36:51;9.90;;;2.47;;
4547;SDS011;2286;51.570;7.090;2023-12-29T04:39:18;8.40;;;2.60;;
4547;SDS011;2286;51.570;7.090;2023-12-29T04:41:46;10.37;;;2.00;;
4547;SDS011;2286;51.570;7.090;2023-12-29T04:44:13;6.33;;;1.63;;
4547;SDS011;2286;51.570;7.090;2023-12-29T04:46:40;5.50;;;2.07;;
4547;SDS011;2286;51.570;7.090;2023-12-29T04:49:07;9.23;;;2.00;;
4547;SDS011;2286;51.570;7.090;2023-12-29T04:51:34;8.97;;;2.13;;
4547;SDS011;2286;51.570;7.090;2023-12-29T04:54:02;6.03;;;1.80;;
4547;SDS011;2286;51.570;7.090;2023-12-29T04:56:28;4.03;;;1.87;;
4547;SDS011;2286;51.570;7.090;2023-12-29T04:58:57;4.67;;;1.73;;
4547;SDS011;2286;51.570;7.090;2023-12-29T05:01:24;5.90;;;1.70;;
4547;SDS011;2286;51.570;7.090;2023-12-29T05:03:51;7.10;;;1.60;;
4547;SDS011;2286;51.570;7.090;2023-12-29T05:06:18;6.13;;;2.00;;
4547;SDS011;2286;51.570;7.090;2023-12-29T05:08:45;3.23;;;2.07;;
4547;SDS011;2286;51.570;7.090;2023-12-29T05:11:12;5.80;;;1.80;;
4547;SDS011;2286;51.570;7.090;2023-12-29T05:13:39;9.50;;;2.10;;
4547;SDS011;2286;51.570;7.090;2023-12-29T05:16:07;7.73;;;1.60;;
4547;SDS011;2286;51.570;7.090;2023-12-29T05:18:34;6.13;;;2.07;;
4547;SDS011;2286;51.570;7.090;2023-12-29T05:21:01;6.53;;;1.60;;
4547;SDS011;2286;51.570;7.090;2023-12-29T05:23:28;6.13;;;2.30;;
4547;SDS011;2286;51.570;7.090;2023-12-29T05:25:55;10.97;;;2.10;;
4547;SDS011;2286;51.570;7.090;2023-12-29T05:28:22;4.07;;;1.80;;
4547;SDS011;2286;51.570;7.090;2023-12-29T05:30:48;9.67;;;1.83;;
4547;SDS011;2286;51.570;7.090;2023-12-29T05:33:17;6.20;;;2.17;;
4547;SDS011;2286;51.570;7.090;2023-12-29T05:35:44;6.47;;;1.97;;
4547;SDS011;2286;51.570;7.090;2023-12-29T05:38:11;9.00;;;2.60;;
4547;SDS011;2286;51.570;7.090;2023-12-29T05:40:38;7.73;;;1.80;;
4547;SDS011;2286;51.570;7.090;2023-12-29T05:43:05;9.37;;;2.37;;
4547;SDS011;2286;51.570;7.090;2023-12-29T05:45:32;6.93;;;2.47;;
4547;SDS011;2286;51.570;7.090;2023-12-29T05:47:59;6.77;;;1.70;;
4547;SDS011;2286;51.570;7.090;2023-12-29T05:50:28;5.60;;;1.83;;
4547;SDS011;2286;51.570;7.090;2023-12-29T05:52:55;4.43;;;1.77;;
4547;SDS011;2286;51.570;7.090;2023-12-29T05:55:21;7.93;;;2.20;;
4547;SDS011;2286;51.570;7.090;2023-12-29T05:57:47;3.87;;;1.80;;
4547;SDS011;2286;51.570;7.090;2023-12-29T06:00:15;8.23;;;2.00;;
4547;SDS011;2286;51.570;7.090;2023-12-29T06:02:42;5.57;;;1.80;;
4547;SDS011;2286;51.570;7.090;2023-12-29T06:05:10;6.73;;;2.00;;
4547;SDS011;2286;51.570;7.090;2023-12-29T06:07:38;6.90;;;1.73;;
4547;SDS011;2286;51.570;7.090;2023-12-29T06:10:06;8.20;;;2.50;;
4547;SDS011;2286;51.570;7.090;2023-12-29T06:12:34;4.50;;;1.40;;
4547;SDS011;2286;51.570;7.090;2023-12-29T06:15:02;6.03;;;1.50;;
4547;SDS011;2286;51.570;7.090;2023-12-29T06:17:29;6.87;;;2.60;;
4547;SDS011;2286;51.570;7.090;2023-12-29T06:19:56;8.77;;;2.23;;
4547;SDS011;2286;51.570;7.090;2023-12-29T06:22:23;8.97;;;1.73;;
4547;SDS011;2286;51.570;7.090;2023-12-29T06:24:51;9.00;;;2.27;;
4547;SDS011;2286;51.570;7.090;2023-12-29T06:27:19;16.33;;;3.13;;
4547;SDS011;2286;51.570;7.090;2023-12-29T06:29:46;9.10;;;2.23;;
4547;SDS011;2286;51.570;7.090;2023-12-29T06:32:13;5.33;;;1.80;;
4547;SDS011;2286;51.570;7.090;2023-12-29T06:34:40;6.00;;;2.00;;
4547;SDS011;2286;51.570;7.090;2023-12-29T06:37:07;5.23;;;1.67;;
4547;SDS011;2286;51.570;7.090;2023-12-29T06:39:34;8.40;;;2.00;;
4547;SDS011;2286;51.570;7.090;2023-12-29T06:42:02;6.17;;;1.70;;
4547;SDS011;2286;51.570;7.090;2023-12-29T06:44:29;9.67;;;2.77;;
4547;SDS011;2286;51.570;7.090;2023-12-29T06:46:56;7.37;;;1.77;;
4547;SDS011;2286;51.570;7.090;2023-12-29T06:49:23;7.20;;;1.63;;
4547;SDS011;2286;51.570;7.090;2023-12-29T06:51:49;6.67;;;1.80;;
4547;SDS011;2286;51.570;7.090;2023-12-29T06:54:18;9.77;;;2.10;;
4547;SDS011;2286;51.570;7.090;2023-12-29T06:56:45;11.67;;;1.97;;
4547;SDS011;2286;51.570;7.090;2023-12-29T06:59:15;4.40;;;1.70;;
4547;SDS011;2286;51.570;7.090;2023-12-29T07:01:43;3.90;;;2.50;;
4547;SDS011;2286;51.570;7.090;2023-12-29T07:04:10;6.17;;;2.07;;
4547;SDS011;2286;51.570;7.090;2023-12-29T07:06:38;7.60;;;1.87;;
4547;SDS011;2286;51.570;7.090;2023-12-29T07:09:05;6.80;;;1.67;;
4547;SDS011;2286;51.570;7.090;2023-12-29T07:11:33;10.93;;;1.90;;
4547;SDS011;2286;51.570;7.090;2023-12-29T07:14:00;7.50;;;1.57;;
4547;SDS011;2286;51.570;7.090;2023-12-29T07:16:29;7.93;;;1.90;;
4547;SDS011;2286;51.570;7.090;2023-12-29T07:18:56;8.30;;;2.13;;
4547;SDS011;2286;51.570;7.090;2023-12-29T07:21:23;9.27;;;1.97;;
4547;SDS011;2286;51.570;7.090;2023-12-29T07:23:49;5.10;;;1.83;;
4547;SDS011;2286;51.570;7.090;2023-12-29T07:26:16;4.53;;;1.83;;
4547;SDS011;2286;51.570;7.090;2023-12-29T07:28:43;5.53;;;2.40;;
4547;SDS011;2286;51.570;7.090;2023-12-29T07:31:10;7.00;;;2.30;;
4547;SDS011;2286;51.570;7.090;2023-12-29T07:33:39;6.40;;;1.83;;
4547;SDS011;2286;51.570;7.090;2023-12-29T07:36:06;5.00;;;1.70;;
4547;SDS011;2286;51.570;7.090;2023-12-29T07:38:33;10.73;;;2.27;;
4547;SDS011;2286;51.570;7.090;2023-12-29T07:41:00;4.60;;;1.70;;
4547;SDS011;2286;51.570;7.090;2023-12-29T07:43:27;4.37;;;1.50;;
4547;SDS011;2286;51.570;7.090;2023-12-29T07:45:54;8.93;;;4.27;;
4547;SDS011;2286;51.570;7.090;2023-12-29T07:48:21;0.40;;;0.30;;
4547;SDS011;2286;51.570;7.090;2023-12-29T07:50:50;0.40;;;0.30;;
4547;SDS011;2286;51.570;7.090;2023-12-29T07:53:17;0.40;;;0.30;;
4547;SDS011;2286;51.570;7.090;2023-12-29T07:55:44;0.40;;;0.30;;
4547;SDS011;2286;51.570;7.090;2023-12-29T07:58:12;0.40;;;0.30;;
4547;SDS011;2286;51.570;7.090;2023-12-29T08:00:39;0.30;;;0.30;;
4547;SDS011;2286;51.570;7.090;2023-12-29T08:03:06;0.30;;;0.30;;
4547;SDS011;2286;51.570;7.090;2023-12-29T08:05:33;0.30;;;0.30;;
4547;SDS011;2286;51.570;7.090;2023-12-29T08:08:02;0.30;;;0.30;;
4547;SDS011;2286;51.570;7.090;2023-12-29T08:10:29;0.30;;;0.30;;
4547;SDS011;2286;51.570;7.090;2023-12-29T08:12:56;0.40;;;0.30;;
4547;SDS011;2286;51.570;7.090;2023-12-29T08:15:23;0.30;;;0.30;;
4547;SDS011;2286;51.570;7.090;2023-12-29T08:17:50;0.30;;;0.30;;
4547;SDS011;2286;51.570;7.090;2023-12-29T08:20:17;0.30;;;0.30;;
4547;SDS011;2286;51.570;7.090;2023-12-29T08:22:46;0.30;;;0.30;;
4547;SDS011;2286;51.570;7.090;2023-12-29T08:25:14;0.40;;;0.30;;
4547;SDS011;2286;51.570;7.090;2023-12-29T08:27:41;0.40;;;0.30;;
4547;SDS011;2286;51.570;7.090;2023-12-29T08:30:08;0.40;;;0.30;;
4547;SDS011;2286;51.570;7.090;2023-12-29T08:32:36;0.30;;;0.30;;
4547;SDS011;2286;51.570;7.090;2023-12-29T08:35:03;0.30;;;0.30;;
4547;SDS011;2286;51.570;7.090;2023-12-29T08:37:31;0.30;;;0.30;;
4547;SDS011;2286;51.570;7.090;2023-12-29T08:39:58;0.30;;;0.30;;
4547;SDS011;2286;51.570;7.090;2023-12-29T08:42:26;0.30;;;0.30;;
4547;SDS011;2286;51.570;7.090;2023-12-29T08:44:54;0.30;;;0.30;;
4547;SDS011;2286;51.570;7.090;2023-12-29T08:47:21;0.30;;;0.30;;
4547;SDS011;2286;51.570;7.090;2023-12-29T08:49:48;0.40;;;0.30;;
4547;SDS011;2286;51.570;7.090;2023-12-29T08:52:16;0.30;;;0.30;;
4547;SDS011;2286;51.570;7.090;2023-12-29T08:54:43;0.30;;;0.30;;
4547;SDS011;2286;51.570;7.090;2023-12-29T08:57:11;0.30;;;0.30;;
4547;SDS011;2286;51.570;7.090;2023-12-29T08:59:42;0.30;;;0.30;;
4547;SDS011;2286;51.570;7.090;2023-12-29T09:02:09;0.30;;;0.30;;
4547;SDS011;2286;51.570;7.090;2023-12-29T09:04:36;0.40;;;0.30;;
4547;SDS011;2286;51.570;7.090;2023-12-29T09:07:03;0.40;;;0.40;;
4547;SDS011;2286;51.570;7.090;2023-12-29T09:09:31;0.30;;;0.30;;
4547;SDS011;2286;51.570;7.090;2023-12-29T09:11:57;0.30;;;0.30;;
4547;SDS011;2286;51.570;7.090;2023-12-29T09:14:24;0.30;;;0.30;;
4547;SDS011;2286;51.570;7.090;2023-12-29T09:16:53;0.30;;;0.30;;
4547;SDS011;2286;51.570;7.090;2023-12-29T09:19:19;0.30;;;0.30;;
4547;SDS011;2286;51.570;7.090;2023-12-29T09:21:46;0.30;;;0.30;;
4547;SDS011;2286;51.570;7.090;2023-12-29T09:24:13;0.30;;;0.30;;
4547;SDS011;2286;51.570;7.090;2023-12-29T09:26:40;0.30;;;0.30;;
4547;SDS011;2286;51.570;7.090;2023-12-29T09:29:07;0.30;;;0.30;;
4547;SDS011;2286;51.570;7.090;2023-12-29T09:31:34;0.30;;;0.30;;
4547;SDS011;2286;51.570;7.090;2023-12-29T09:34:02;0.40;;;0.40;;
4547;SDS011;2286;51.570;7.090;2023-12-29T09:36:29;0.30;;;0.30;;
4547;SDS011;2286;51.570;7.090;2023-12-29T09:38:56;0.30;;;0.30;;
4547;SDS011;2286;51.570;7.090;2023-12-29T09:41:23;0.40;;;0.30;;
4547;SDS011;2286;51.570;7.090;2023-12-29T09:43:52;0.30;;;0.30;;
4547;SDS011;2286;51.570;7.090;2023-12-29T09:46:19;0.30;;;0.30;;
4547;SDS011;2286;51.570;7.090;2023-12-29T09:48:48;0.37;;;0.30;;
4547;SDS011;2286;51.570;7.090;2023-12-29T09:51:19;0.30;;;0.30;;
4547;SDS011;2286;51.570;7.090;2023-12-29T09:53:48;0.30;;;0.30;;
4547;SDS011;2286;51.570;7.090;2023-12-29T09:56:17;0.30;;;0.30;;
4547;SDS011;2286;51.570;7.090;2023-12-29T09:58:46;0.30;;;0.30;;
4547;SDS011;2286;51.570;7.090;2023-12-29T10:01:13;0.40;;;0.30;;
4547;SDS011;2286;51.570;7.090;2023-12-29T10:03:43;0.30;;;0.30;;
4547;SDS011;2286;51.570;7.090;2023-12-29T10:06:10;0.30;;;0.30;;
4547;SDS011;2286;51.570;7.090;2023-12-29T10:08:44;0.30;;;0.30;;
4547;SDS011;2286;51.570;7.090;2023-12-29T10:11:12;0.30;;;0.30;;
4547;SDS011;2286;51.570;7.090;2023-12-29T10:13:41;0.40;;;0.30;;
4547;SDS011;2286;51.570;7.090;2023-12-29T10:16:13;0.30;;;0.30;;
4547;SDS011;2286;51.570;7.090;2023-12-29T10:18:49;0.30;;;0.30;;
4547;SDS011;2286;51.570;7.090;2023-12-29T10:21:26;0.30;;;0.30;;
4547;SDS011;2286;51.570;7.090;2023-12-29T10:23:58;0.30;;;0.30;;
4547;SDS011;2286;51.570;7.090;2023-12-29T10:26:35;0.30;;;0.30;;
4547;SDS011;2286;51.570;7.090;2023-12-29T10:29:02;0.30;;;0.30;;
4547;SDS011;2286;51.570;7.090;2023-12-29T10:31:29;0.30;;;0.30;;
4547;SDS011;2286;51.570;7.090;2023-12-29T10:36:47;0.40;;;0.40;;
4547;SDS011;2286;51.570;7.090;2023-12-29T10:39:16;0.30;;;0.30;;
4547;SDS011;2286;51.570;7.090;2023-12-29T10:41:43;0.30;;;0.30;;
4547;SDS011;2286;51.570;7.090;2023-12-29T10:44:10;0.30;;;0.30;;
4547;SDS011;2286;51.570;7.090;2023-12-29T10:46:37;0.80;;;0.77;;
4547;SDS011;2286;51.570;7.090;2023-12-29T10:49:07;1.80;;;0.97;;
4547;SDS011;2286;51.570;7.090;2023-12-29T10:51:35;1.10;;;0.97;;
4547;SDS011;2286;51.570;7.090;2023-12-29T10:54:03;2.47;;;1.10;;
4547;SDS011;2286;51.570;7.090;2023-12-29T10:56:32;1.30;;;1.20;;
4547;SDS011;2286;51.570;7.090;2023-12-29T10:58:59;3.37;;;1.73;;
4547;SDS011;2286;51.570;7.090;2023-12-29T11:01:28;1.73;;;1.07;;
4547;SDS011;2286;51.570;7.090;2023-12-29T11:03:57;1.87;;;1.00;;
4547;SDS011;2286;51.570;7.090;2023-12-29T11:06:28;1.23;;;1.00;;
4547;SDS011;2286;51.570;7.090;2023-12-29T11:08:55;1.67;;;1.10;;
4547;SDS011;2286;51.570;7.090;2023-12-29T11:11:22;2.53;;;1.10;;
4547;SDS011;2286;51.570;7.090;2023-12-29T11:13:51;3.13;;;1.03;;
4547;SDS011;2286;51.570;7.090;2023-12-29T11:16:20;1.30;;;0.90;;
4547;SDS011;2286;51.570;7.090;2023-12-29T11:18:49;1.53;;;1.00;;
4547;SDS011;2286;51.570;7.090;2023-12-29T11:21:17;3.00;;;1.30;;
4547;SDS011;2286;51.570;7.090;2023-12-29T11:23:46;3.20;;;1.20;;
4547;SDS011;2286;51.570;7.090;2023-12-29T11:26:13;4.03;;;1.03;;
4547;SDS011;2286;51.570;7.090;2023-12-29T11:28:41;2.20;;;1.03;;
4547;SDS011;2286;51.570;7.090;2023-12-29T11:31:10;2.83;;;0.90;;
4547;SDS011;2286;51.570;7.090;2023-12-29T11:33:38;3.07;;;0.90;;
4547;SDS011;2286;51.570;7.090;2023-12-29T11:36:09;2.63;;;1.87;;
4547;SDS011;2286;51.570;7.090;2023-12-29T11:38:47;1.33;;;0.90;;
4547;SDS011;2286;51.570;7.090;2023-12-29T11:41:21;1.60;;;1.20;;
4547;SDS011;2286;51.570;7.090;2023-12-29T11:43:58;3.10;;;1.13;;
4547;SDS011;2286;51.570;7.090;2023-12-29T11:46:33;3.00;;;1.40;;
4547;SDS011;2286;51.570;7.090;2023-12-29T11:49:04;4.30;;;1.00;;
4547;SDS011;2286;51.570;7.090;2023-12-29T11:51:32;3.07;;;1.00;;
4547;SDS011;2286;51.570;7.090;2023-12-29T11:54:03;2.87;;;1.03;;
4547;SDS011;2286;51.570;7.090;2023-12-29T11:56:31;2.70;;;1.53;;
4547;SDS011;2286;51.570;7.090;2023-12-29T11:59:15;3.10;;;1.00;;
4547;SDS011;2286;51.570;7.090;2023-12-29T12:01:45;1.73;;;1.10;;
4547;SDS011;2286;51.570;7.090;2023-12-29T12:07:05;3.47;;;1.33;;
4547;SDS011;2286;51.570;7.090;2023-12-29T12:09:32;2.77;;;1.27;;
4547;SDS011;2286;51.570;7.090;2023-12-29T12:12:00;6.23;;;1.33;;
4547;SDS011;2286;51.570;7.090;2023-12-29T12:14:42;3.00;;;1.40;;
4547;SDS011;2286;51.570;7.090;2023-12-29T12:17:11;3.33;;;1.50;;
4547;SDS011;2286;51.570;7.090;2023-12-29T12:19:39;4.73;;;2.07;;
4547;SDS011;2286;51.570;7.090;2023-12-29T12:22:06;3.23;;;1.40;;
4547;SDS011;2286;51.570;7.090;2023-12-29T12:24:35;2.97;;;1.30;;
4547;SDS011;2286;51.570;7.090;2023-12-29T12:27:03;5.60;;;1.07;;
4547;SDS011;2286;51.570;7.090;2023-12-29T12:29:35;4.13;;;1.83;;
4547;SDS011;2286;51.570;7.090;2023-12-29T12:32:02;3.53;;;1.00;;
4547;SDS011;2286;51.570;7.090;2023-12-29T12:34:37;2.57;;;1.40;;
4547;SDS011;2286;51.570;7.090;2023-12-29T12:37:04;4.90;;;0.90;;
4547;SDS011;2286;51.570;7.090;2023-12-29T12:39:38;3.23;;;1.93;;
4547;SDS011;2286;51.570;7.090;2023-12-29T12:42:06;1.40;;;1.00;;
4547;SDS011;2286;51.570;7.090;2023-12-29T12:44:33;5.57;;;1.37;;
4547;SDS011;2286;51.570;7.090;2023-12-29T12:47:01;6.37;;;1.60;;
4547;SDS011;2286;51.570;7.090;2023-12-29T12:49:34;4.47;;;1.70;;
4547;SDS011;2286;51.570;7.090;2023-12-29T12:52:04;5.70;;;1.80;;
4547;SDS011;2286;51.570;7.090;2023-12-29T12:54:31;3.43;;;1.23;;
4547;SDS011;2286;51.570;7.090;2023-12-29T12:56:58;3.43;;;1.20;;
4547;SDS011;2286;51.570;7.090;2023-12-29T12:59:26;5.57;;;1.80;;
4547;SDS011;2286;51.570;7.090;2023-12-29T13:01:54;6.20;;;2.40;;
4547;SDS011;2286;51.570;7.090;2023-12-29T13:04:21;6.70;;;2.10;;
4547;SDS011;2286;51.570;7.090;2023-12-29T13:06:48;7.23;;;1.30;;
4547;SDS011;2286;51.570;7.090;2023-12-29T13:09:17;0.40;;;0.30;;
4547;SDS011;2286;51.570;7.090;2023-12-29T13:11:45;0.40;;;0.30;;
4547;SDS011;2286;51.570;7.090;2023-12-29T13:14:19;0.40;;;0.30;;
4547;SDS011;2286;51.570;7.090;2023-12-29T13:16:47;0.30;;;0.30;;
4547;SDS011;2286;51.570;7.090;2023-12-29T13:19:15;0.30;;;0.30;;
4547;SDS011;2286;51.570;7.090;2023-12-29T13:21:45;0.40;;;0.30;;
4547;SDS011;2286;51.570;7.090;2023-12-29T13:24:13;0.40;;;0.30;;
4547;SDS011;2286;51.570;7.090;2023-12-29T13:26:43;0.30;;;0.30;;
4547;SDS011;2286;51.570;7.090;2023-12-29T13:29:11;0.30;;;0.30;;
4547;SDS011;2286;51.570;7.090;2023-12-29T13:31:39;0.30;;;0.30;;
4547;SDS011;2286;51.570;7.090;2023-12-29T13:34:11;0.30;;;0.30;;
4547;SDS011;2286;51.570;7.090;2023-12-29T13:36:42;0.30;;;0.30;;
4547;SDS011;2286;51.570;7.090;2023-12-29T13:39:19;0.30;;;0.30;;
4547;SDS011;2286;51.570;7.090;2023-12-29T13:41:53;1.73;;;1.63;;
4547;SDS011;2286;51.570;7.090;2023-12-29T13:44:21;0.30;;;0.30;;
4547;SDS011;2286;51.570;7.090;2023-12-29T13:46:49;0.30;;;0.30;;
4547;SDS011;2286;51.570;7.090;2023-12-29T13:49:18;0.30;;;0.30;;
4547;SDS011;2286;51.570;7.090;2023-12-29T13:51:45;0.30;;;0.30;;
4547;SDS011;2286;51.570;7.090;2023-12-29T13:54:12;0.30;;;0.30;;
4547;SDS011;2286;51.570;7.090;2023-12-29T13:56:39;0.30;;;0.30;;
4547;SDS011;2286;51.570;7.090;2023-12-29T13:59:19;0.30;;;0.30;;
4547;SDS011;2286;51.570;7.090;2023-12-29T14:01:57;0.30;;;0.30;;
4547;SDS011;2286;51.570;7.090;2023-12-29T14:04:25;0.30;;;0.30;;
4547;SDS011;2286;51.570;7.090;2023-12-29T14:06:52;0.30;;;0.30;;
4547;SDS011;2286;51.570;7.090;2023-12-29T14:09:25;0.30;;;0.30;;
4547;SDS011;2286;51.570;7.090;2023-12-29T14:11:52;0.30;;;0.30;;
4547;SDS011;2286;51.570;7.090;2023-12-29T14:14:23;0.30;;;0.30;;
4547;SDS011;2286;51.570;7.090;2023-12-29T14:16:51;0.30;;;0.30;;
4547;SDS011;2286;51.570;7.090;2023-12-29T14:19:18;0.30;;;0.30;;
4547;SDS011;2286;51.570;7.090;2023-12-29T14:21:45;0.30;;;0.30;;
4547;SDS011;2286;51.570;7.090;2023-12-29T14:24:16;0.30;;;0.30;;
4547;SDS011;2286;51.570;7.090;2023-12-29T14:26:53;0.30;;;0.30;;
4547;SDS011;2286;51.570;7.090;2023-12-29T14:29:21;0.43;;;0.43;;
4547;SDS011;2286;51.570;7.090;2023-12-29T14:31:50;0.30;;;0.30;;
4547;SDS011;2286;51.570;7.090;2023-12-29T14:34:17;0.30;;;0.30;;
4547;SDS011;2286;51.570;7.090;2023-12-29T14:36:45;0.30;;;0.30;;
4547;SDS011;2286;51.570;7.090;2023-12-29T14:39:12;0.30;;;0.30;;
4547;SDS011;2286;51.570;7.090;2023-12-29T14:41:40;0.30;;;0.30;;
4547;SDS011;2286;51.570;7.090;2023-12-29T14:44:07;0.30;;;0.30;;
4547;SDS011;2286;51.570;7.090;2023-12-29T14:46:36;0.30;;;0.30;;
4547;SDS011;2286;51.570;7.090;2023-12-29T14:49:03;0.30;;;0.30;;
4547;SDS011;2286;51.570;7.090;2023-12-29T14:51:31;0.30;;;0.30;;
4547;SDS011;2286;51.570;7.090;2023-12-29T14:53:57;0.30;;;0.30;;
4547;SDS011;2286;51.570;7.090;2023-12-29T14:56:24;2.97;;;2.73;;
4547;SDS011;2286;51.570;7.090;2023-12-29T14:58:51;0.30;;;0.30;;
4547;SDS011;2286;51.570;7.090;2023-12-29T15:01:18;0.30;;;0.30;;
4547;SDS011;2286;51.570;7.090;2023-12-29T15:03:46;0.30;;;0.30;;
4547;SDS011;2286;51.570;7.090;2023-12-29T15:06:13;0.30;;;0.30;;
4547;SDS011;2286;51.570;7.090;2023-12-29T15:08:40;0.30;;;0.30;;
4547;SDS011;2286;51.570;7.090;2023-12-29T15:11:07;0.30;;;0.30;;
4547;SDS011;2286;51.570;7.090;2023-12-29T15:13:34;0.30;;;0.30;;
4547;SDS011;2286;51.570;7.090;2023-12-29T15:16:03;0.30;;;0.30;;
4547;SDS011;2286;51.570;7.090;2023-12-29T15:18:31;0.30;;;0.30;;
4547;SDS011;2286;51.570;7.090;2023-12-29T15:21:00;0.40;;;0.40;;
4547;SDS011;2286;51.570;7.090;2023-12-29T15:23:28;0.30;;;0.30;;
4547;SDS011;2286;51.570;7.090;2023-12-29T15:25:54;0.30;;;0.30;;
4547;SDS011;2286;51.570;7.090;2023-12-29T15:28:21;0.30;;;0.30;;